createdAt,value
2018-06-27T00:00:54.690Z,73.76
2018-06-27T00:01:54.680Z,73.76
2018-06-27T00:02:54.673Z,74.15
2018-06-27T00:03:54.659Z,74.24
2018-06-27T00:04:54.653Z,74.05
2018-06-27T00:05:54.643Z,74.15
2018-06-27T00:06:54.638Z,73.86
2018-06-27T00:07:54.623Z,74.05
2018-06-27T00:08:54.614Z,74.91
2018-06-27T00:09:54.603Z,74.62
2018-06-27T00:10:54.593Z,74.82
2018-06-27T00:11:54.584Z,74.82
2018-06-27T00:12:54.578Z,74.58
2018-06-27T00:13:54.568Z,74.49
2018-06-27T00:14:54.558Z,74.30
2018-06-27T00:15:54.546Z,74.58
2018-06-27T00:16:54.536Z,74.87
2018-06-27T00:17:54.530Z,74.49
2018-06-27T00:18:54.518Z,74.87
2018-06-27T00:19:54.513Z,74.58
2018-06-27T00:20:54.501Z,74.40
2018-06-27T00:21:54.495Z,75.16
2018-06-27T00:22:54.480Z,74.87
2018-06-27T00:23:54.470Z,74.58
2018-06-27T00:24:54.462Z,74.68
2018-06-27T00:25:54.452Z,74.87
2018-06-27T00:26:54.444Z,75.35
2018-06-27T00:27:54.435Z,75.16
2018-06-27T00:28:54.427Z,74.77
2018-06-27T00:29:54.423Z,75.07
2018-06-27T00:30:54.405Z,75.16
2018-06-27T00:31:54.395Z,75.54
2018-06-27T00:32:54.389Z,75.35
2018-06-27T00:33:54.434Z,75.64
2018-06-27T00:34:54.366Z,75.35
2018-06-27T00:35:54.354Z,75.35
2018-06-27T00:36:54.350Z,75.54
2018-06-27T00:37:54.337Z,75.64
2018-06-27T00:38:54.340Z,74.97
2018-06-27T00:39:54.312Z,75.16
2018-06-27T00:40:54.308Z,75.54
2018-06-27T00:41:54.312Z,75.16
2018-06-27T00:42:54.293Z,75.12
2018-06-27T00:43:54.283Z,75.16
2018-06-27T00:44:54.273Z,75.12
2018-06-27T00:45:54.259Z,75.26
2018-06-27T00:46:54.253Z,75.22
2018-06-27T00:47:54.245Z,74.93
2018-06-27T00:48:54.229Z,75.51
2018-06-27T00:49:54.223Z,75.22
2018-06-27T00:50:54.210Z,75.70
2018-06-27T00:51:54.208Z,75.51
2018-06-27T00:52:54.200Z,76.18
2018-06-27T00:53:54.184Z,75.51
2018-06-27T00:54:54.177Z,75.70
2018-06-27T00:55:54.161Z,75.51
2018-06-27T00:56:54.159Z,75.79
2018-06-27T00:57:54.144Z,75.60
2018-06-27T00:58:54.134Z,75.89
2018-06-27T00:59:54.126Z,75.70
2018-06-27T01:00:54.118Z,75.70
2018-06-27T01:01:54.106Z,76.08
2018-06-27T01:02:54.097Z,76.46
2018-06-27T01:03:54.090Z,76.46
2018-06-27T01:04:54.075Z,76.65
2018-06-27T01:05:54.065Z,76.08
2018-06-27T01:06:54.055Z,76.56
2018-06-27T01:07:54.048Z,76.65
2018-06-27T01:08:54.038Z,76.27
2018-06-27T01:09:54.025Z,75.51
2018-06-27T01:10:54.019Z,75.79
2018-06-27T01:11:54.010Z,75.51
2018-06-27T01:12:53.999Z,75.95
2018-06-27T01:13:53.987Z,76.23
2018-06-27T01:14:53.977Z,76.23
2018-06-27T01:15:53.969Z,76.33
2018-06-27T01:16:53.962Z,76.14
2018-06-27T01:17:53.950Z,76.33
2018-06-27T01:18:53.935Z,76.90
2018-06-27T01:19:53.927Z,76.81
2018-06-27T01:20:53.917Z,76.81
2018-06-27T01:21:53.908Z,76.71
2018-06-27T01:22:53.899Z,77.33
2018-06-27T01:23:53.889Z,77.09
2018-06-27T01:24:53.884Z,76.71
2018-06-27T01:25:53.867Z,77.09
2018-06-27T01:26:53.861Z,77.00
2018-06-27T01:27:53.852Z,77.00
2018-06-27T01:28:53.844Z,77.28
2018-06-27T01:29:53.829Z,77.28
2018-06-27T01:30:53.822Z,77.09
2018-06-27T01:31:53.811Z,77.09
2018-06-27T01:32:53.803Z,77.28
2018-06-27T01:33:53.793Z,77.00
2018-06-27T01:34:53.776Z,76.71
2018-06-27T01:35:53.770Z,76.90
2018-06-27T01:36:53.760Z,77.28
2018-06-27T01:37:53.750Z,76.62
2018-06-27T01:38:53.743Z,76.90
2018-06-27T01:39:53.728Z,76.90
2018-06-27T01:40:53.724Z,76.90
2018-06-27T01:41:53.711Z,77.28
2018-06-27T01:42:53.705Z,77.00
2018-06-27T01:43:53.690Z,77.28
2018-06-27T01:44:53.687Z,77.09
2018-06-27T01:45:53.673Z,76.71
2018-06-27T01:46:53.663Z,76.81
2018-06-27T01:47:53.654Z,76.71
2018-06-27T01:48:53.644Z,76.90
2018-06-27T01:49:53.632Z,76.71
2018-06-27T01:50:53.622Z,77.00
2018-06-27T01:51:53.614Z,77.09
2018-06-27T01:52:53.602Z,76.90
2018-06-27T01:53:53.590Z,76.62
2018-06-27T01:54:53.582Z,76.71
2018-06-27T01:55:53.574Z,76.42
2018-06-27T01:56:53.558Z,76.71
2018-06-27T01:57:53.552Z,76.33
2018-06-27T01:58:53.545Z,76.90
2018-06-27T01:59:53.536Z,76.90
2018-06-27T02:00:53.523Z,77.86
2018-06-27T02:01:53.512Z,77.67
2018-06-27T02:02:53.500Z,77.57
2018-06-27T02:03:53.497Z,77.86
2018-06-27T02:04:53.481Z,77.86
2018-06-27T02:05:53.469Z,77.57
2018-06-27T02:06:53.456Z,77.00
2018-06-27T02:07:53.454Z,77.76
2018-06-27T02:08:53.442Z,77.67
2018-06-27T02:09:53.432Z,77.76
2018-06-27T02:10:53.422Z,77.38
2018-06-27T02:11:53.410Z,77.76
2018-06-27T02:12:53.400Z,77.19
2018-06-27T02:13:53.391Z,76.81
2018-06-27T02:14:53.381Z,77.48
2018-06-27T02:15:53.369Z,77.86
2018-06-27T02:16:53.354Z,77.86
2018-06-27T02:17:53.348Z,76.81
2018-06-27T02:18:53.340Z,77.86
2018-06-27T02:19:53.329Z,77.57
2018-06-27T02:20:53.320Z,77.67
2018-06-27T02:21:53.303Z,77.57
2018-06-27T02:22:53.298Z,77.95
2018-06-27T02:23:53.292Z,77.19
2018-06-27T02:24:53.279Z,76.81
2018-06-27T02:25:53.266Z,77.09
2018-06-27T02:26:53.256Z,77.00
2018-06-27T02:27:53.246Z,77.19
2018-06-27T02:28:53.253Z,77.19
2018-06-27T02:29:53.232Z,77.25
2018-06-27T02:30:53.220Z,77.09
2018-06-27T02:31:53.214Z,77.15
2018-06-27T02:32:53.201Z,77.82
2018-06-27T02:33:53.224Z,77.34
2018-06-27T02:34:53.176Z,77.63
2018-06-27T02:35:53.168Z,77.82
2018-06-27T02:36:53.161Z,77.34
2018-06-27T02:37:53.148Z,77.44
2018-06-27T02:38:53.137Z,77.63
2018-06-27T02:39:53.127Z,77.44
2018-06-27T02:40:53.120Z,77.72
2018-06-27T02:41:53.107Z,78.11
2018-06-27T02:42:53.099Z,77.72
2018-06-27T02:43:53.086Z,77.72
2018-06-27T02:44:53.076Z,77.82
2018-06-27T02:45:53.066Z,77.92
2018-06-27T02:46:53.055Z,78.01
2018-06-27T02:47:53.046Z,78.11
2018-06-27T02:48:53.033Z,78.30
2018-06-27T02:49:53.057Z,77.92
2018-06-27T02:50:53.013Z,78.20
2018-06-27T02:51:53.002Z,78.11
2018-06-27T02:52:52.990Z,78.01
2018-06-27T02:53:52.982Z,78.30
2018-06-27T02:54:52.976Z,78.11
2018-06-27T02:55:52.960Z,77.92
2018-06-27T02:56:52.948Z,78.39
2018-06-27T02:57:52.942Z,78.68
2018-06-27T02:58:52.934Z,77.63
2018-06-27T02:59:52.925Z,78.30
2018-06-27T03:00:52.910Z,78.30
2018-06-27T03:01:52.900Z,78.20
2018-06-27T03:02:52.883Z,78.39
2018-06-27T03:03:52.880Z,78.39
2018-06-27T03:04:52.868Z,78.30
2018-06-27T03:05:52.866Z,78.30
2018-06-27T03:06:52.845Z,78.20
2018-06-27T03:07:52.839Z,78.30
2018-06-27T03:08:52.826Z,78.39
2018-06-27T03:09:52.821Z,78.20
2018-06-27T03:10:52.815Z,78.58
2018-06-27T03:11:52.797Z,78.87
2018-06-27T03:12:52.790Z,78.87
2018-06-27T03:13:52.775Z,78.78
2018-06-27T03:14:52.768Z,78.78
2018-06-27T03:15:52.756Z,79.16
2018-06-27T03:16:52.745Z,79.16
2018-06-27T03:17:52.735Z,78.87
2018-06-27T03:18:52.726Z,78.49
2018-06-27T03:19:52.712Z,78.68
2018-06-27T03:20:52.701Z,79.06
2018-06-27T03:21:52.696Z,78.87
2018-06-27T03:22:52.683Z,78.87
2018-06-27T03:23:52.687Z,78.97
2018-06-27T03:24:52.669Z,79.06
2018-06-27T03:25:52.655Z,78.97
2018-06-27T03:26:52.640Z,79.16
2018-06-27T03:27:52.631Z,78.97
2018-06-27T03:28:52.621Z,78.97
2018-06-27T03:29:52.611Z,78.87
2018-06-27T03:30:52.597Z,79.16
2018-06-27T03:31:52.589Z,79.35
2018-06-27T03:32:52.580Z,79.06
2018-06-27T03:33:52.566Z,79.16
2018-06-27T03:34:52.557Z,79.25
2018-06-27T03:35:52.549Z,79.35
2018-06-27T03:36:52.541Z,79.35
2018-06-27T03:37:52.525Z,79.64
2018-06-27T03:38:52.520Z,78.97
2018-06-27T03:39:52.508Z,79.35
2018-06-27T03:40:52.501Z,78.87
2018-06-27T03:41:52.488Z,79.25
2018-06-27T03:42:52.476Z,79.25
2018-06-27T03:43:52.474Z,79.06
2018-06-27T03:44:52.449Z,79.35
2018-06-27T03:45:52.444Z,79.54
2018-06-27T03:46:52.433Z,79.44
2018-06-27T03:47:52.423Z,79.64
2018-06-27T03:48:52.413Z,78.87
2018-06-27T03:49:52.401Z,79.35
2018-06-27T03:50:52.392Z,79.64
2018-06-27T03:51:52.378Z,79.44
2018-06-27T03:52:52.390Z,79.16
2018-06-27T03:53:52.360Z,79.73
2018-06-27T03:54:52.356Z,78.97
2018-06-27T03:55:52.339Z,79.35
2018-06-27T03:56:52.327Z,79.25
2018-06-27T03:57:52.313Z,78.78
2018-06-27T03:58:52.330Z,79.16
2018-06-27T03:59:52.298Z,79.25
2018-06-27T04:00:52.291Z,79.73
2018-06-27T04:01:52.278Z,79.83
2018-06-27T04:02:52.271Z,79.44
2018-06-27T04:03:52.253Z,79.73
2018-06-27T04:04:52.245Z,79.25
2018-06-27T04:05:52.239Z,79.44
2018-06-27T04:06:52.221Z,79.73
2018-06-27T04:07:52.211Z,79.35
2018-06-27T04:08:52.223Z,79.64
2018-06-27T04:09:52.195Z,79.44
2018-06-27T04:10:52.181Z,79.83
2018-06-27T04:11:52.172Z,79.73
2018-06-27T04:12:52.174Z,79.44
2018-06-27T04:13:52.156Z,79.25
2018-06-27T04:14:52.137Z,79.44
2018-06-27T04:15:52.130Z,79.73
2018-06-27T04:16:52.118Z,79.64
2018-06-27T04:17:52.108Z,79.64
2018-06-27T04:18:52.095Z,79.73
2018-06-27T04:19:52.092Z,80.11
2018-06-27T04:20:52.075Z,80.21
2018-06-27T04:21:52.070Z,79.64
2018-06-27T04:22:52.062Z,79.64
2018-06-27T04:23:52.045Z,79.25
2018-06-27T04:24:52.043Z,79.73
2018-06-27T04:25:52.027Z,79.73
2018-06-27T04:26:52.019Z,80.50
2018-06-27T04:27:52.000Z,79.54
2018-06-27T04:28:51.990Z,79.73
2018-06-27T04:29:51.982Z,79.06
2018-06-27T04:30:51.974Z,79.44
2018-06-27T04:31:51.961Z,79.16
2018-06-27T04:32:51.958Z,79.16
2018-06-27T04:33:51.936Z,79.25
2018-06-27T04:34:51.933Z,78.87
2018-06-27T04:35:51.927Z,79.16
2018-06-27T04:36:51.915Z,79.25
2018-06-27T04:37:51.903Z,79.25
2018-06-27T04:38:51.891Z,79.16
2018-06-27T04:39:51.879Z,79.25
2018-06-27T04:40:51.867Z,79.58
2018-06-27T04:41:51.857Z,79.00
2018-06-27T04:42:51.846Z,79.64
2018-06-27T04:43:51.836Z,79.49
2018-06-27T04:44:51.829Z,79.29
2018-06-27T04:45:51.825Z,78.81
2018-06-27T04:46:51.804Z,79.10
2018-06-27T04:47:51.797Z,79.49
2018-06-27T04:48:51.785Z,79.29
2018-06-27T04:49:51.773Z,79.20
2018-06-27T04:50:51.763Z,79.20
2018-06-27T04:51:51.755Z,79.20
2018-06-27T04:52:51.748Z,79.49
2018-06-27T04:53:51.733Z,79.77
2018-06-27T04:54:51.742Z,79.87
2018-06-27T04:55:51.709Z,79.58
2018-06-27T04:56:51.707Z,79.29
2018-06-27T04:57:51.692Z,79.49
2018-06-27T04:58:51.682Z,78.81
2018-06-27T04:59:51.670Z,78.63
2018-06-27T05:00:51.656Z,78.14
2018-06-27T05:01:51.652Z,78.72
2018-06-27T05:02:51.644Z,78.34
2018-06-27T05:03:51.633Z,78.14
2018-06-27T05:04:51.620Z,78.34
2018-06-27T05:05:51.602Z,78.53
2018-06-27T05:06:51.599Z,78.24
2018-06-27T05:07:51.593Z,78.72
2018-06-27T05:08:51.581Z,78.34
2018-06-27T05:09:51.569Z,78.14
2018-06-27T05:10:51.558Z,78.30
2018-06-27T05:11:51.547Z,78.78
2018-06-27T05:12:51.536Z,78.87
2018-06-27T05:13:51.520Z,79.06
2018-06-27T05:14:51.515Z,79.35
2018-06-27T05:15:51.548Z,79.44
2018-06-27T05:16:51.495Z,79.73
2018-06-27T05:17:51.483Z,79.77
2018-06-27T05:18:51.482Z,79.77
2018-06-27T05:19:51.467Z,79.68
2018-06-27T05:20:51.457Z,79.49
2018-06-27T05:21:51.458Z,79.77
2018-06-27T05:22:51.434Z,79.10
2018-06-27T05:23:51.426Z,79.20
2018-06-27T05:24:51.412Z,79.29
2018-06-27T05:25:51.404Z,79.29
2018-06-27T05:26:51.390Z,79.20
2018-06-27T05:27:51.382Z,79.29
2018-06-27T05:28:51.369Z,79.10
2018-06-27T05:29:51.357Z,79.87
2018-06-27T05:30:51.353Z,79.87
2018-06-27T05:31:51.345Z,79.58
2018-06-27T05:32:51.335Z,79.68
2018-06-27T05:33:51.340Z,80.06
2018-06-27T05:34:51.307Z,79.77
2018-06-27T05:35:51.297Z,79.77
2018-06-27T05:36:51.287Z,79.91
2018-06-27T05:37:51.277Z,79.10
2018-06-27T05:38:51.268Z,79.33
2018-06-27T05:39:51.258Z,79.00
2018-06-27T05:40:51.250Z,79.00
2018-06-27T05:41:51.236Z,78.34
2018-06-27T05:42:51.227Z,78.34
2018-06-27T05:43:51.216Z,79.62
2018-06-27T05:44:51.208Z,79.29
2018-06-27T05:45:51.194Z,79.20
2018-06-27T05:46:51.186Z,79.49
2018-06-27T05:47:51.186Z,79.20
2018-06-27T05:48:51.167Z,79.68
2018-06-27T05:49:51.151Z,79.68
2018-06-27T05:50:51.141Z,79.68
2018-06-27T05:51:51.135Z,79.58
2018-06-27T05:52:51.125Z,80.19
2018-06-27T05:53:51.113Z,80.19
2018-06-27T05:54:51.102Z,80.29
2018-06-27T05:55:51.094Z,79.33
2018-06-27T05:56:51.082Z,79.91
2018-06-27T05:57:51.078Z,80.10
2018-06-27T05:58:51.062Z,79.72
2018-06-27T05:59:51.051Z,78.91
2018-06-27T06:00:51.042Z,78.95
2018-06-27T06:01:51.035Z,79.52
2018-06-27T06:02:51.025Z,79.24
2018-06-27T06:03:51.013Z,79.52
2018-06-27T06:04:51.004Z,78.86
2018-06-27T06:05:50.994Z,78.81
2018-06-27T06:06:50.987Z,78.14
2018-06-27T06:07:50.972Z,78.43
2018-06-27T06:08:50.962Z,78.09
2018-06-27T06:09:50.953Z,78.57
2018-06-27T06:10:50.940Z,79.33
2018-06-27T06:11:50.945Z,78.38
2018-06-27T06:12:50.940Z,78.19
2018-06-27T06:13:50.909Z,78.19
2018-06-27T06:14:50.901Z,77.99
2018-06-27T06:15:50.923Z,77.90
2018-06-27T06:16:50.879Z,78.38
2018-06-27T06:17:50.869Z,78.28
2018-06-27T06:18:50.857Z,77.99
2018-06-27T06:19:50.859Z,78.13
2018-06-27T06:20:50.845Z,78.28
2018-06-27T06:21:50.834Z,78.99
2018-06-27T06:22:50.819Z,78.66
2018-06-27T06:23:50.819Z,78.51
2018-06-27T06:24:50.796Z,78.51
2018-06-27T06:25:50.789Z,78.32
2018-06-27T06:26:50.780Z,77.94
2018-06-27T06:27:50.767Z,78.03
2018-06-27T06:28:50.752Z,77.65
2018-06-27T06:29:50.751Z,77.17
2018-06-27T06:30:50.748Z,77.08
2018-06-27T06:31:50.728Z,77.13
2018-06-27T06:32:50.715Z,77.42
2018-06-27T06:33:50.714Z,77.99
2018-06-27T06:34:50.706Z,78.57
2018-06-27T06:35:50.691Z,78.47
2018-06-27T06:36:50.683Z,78.66
2018-06-27T06:37:50.668Z,79.24
2018-06-27T06:38:50.658Z,79.24
2018-06-27T06:39:50.649Z,79.52
2018-06-27T06:40:50.727Z,79.43
2018-06-27T06:41:50.629Z,79.91
2018-06-27T06:42:50.623Z,80.00
2018-06-27T06:43:50.609Z,80.19
2018-06-27T06:44:50.600Z,79.72
2018-06-27T06:45:50.585Z,80.10
2018-06-27T06:46:50.575Z,79.81
2018-06-27T06:47:50.568Z,79.91
2018-06-27T06:48:50.557Z,79.52
2018-06-27T06:49:50.551Z,79.62
2018-06-27T06:50:50.537Z,79.43
2018-06-27T06:51:50.530Z,79.52
2018-06-27T06:52:50.512Z,78.76
2018-06-27T06:53:50.511Z,78.95
2018-06-27T06:54:50.497Z,78.86
2018-06-27T06:55:50.490Z,79.24
2018-06-27T06:56:50.471Z,78.86
2018-06-27T06:57:50.462Z,79.05
2018-06-27T06:58:50.550Z,78.51
2018-06-27T06:59:50.466Z,78.89
2018-06-27T07:00:50.440Z,78.80
2018-06-27T07:01:50.429Z,78.89
2018-06-27T07:02:50.422Z,78.89
2018-06-27T07:03:50.403Z,78.99
2018-06-27T07:04:50.440Z,77.94
2018-06-27T07:05:50.389Z,77.65
2018-06-27T07:06:50.376Z,77.88
2018-06-27T07:07:50.369Z,77.78
2018-06-27T07:08:50.356Z,78.45
2018-06-27T07:09:50.347Z,77.97
2018-06-27T07:10:50.335Z,76.54
2018-06-27T07:11:50.329Z,76.35
2018-06-27T07:12:50.319Z,76.64
2018-06-27T07:13:50.310Z,76.35
2018-06-27T07:14:50.304Z,76.15
2018-06-27T07:15:50.287Z,76.25
2018-06-27T07:16:50.281Z,75.96
2018-06-27T07:17:50.316Z,76.44
2018-06-27T07:18:50.257Z,76.06
2018-06-27T07:19:50.251Z,75.62
2018-06-27T07:20:50.237Z,76.25
2018-06-27T07:21:50.228Z,76.35
2018-06-27T07:22:50.218Z,75.14
2018-06-27T07:23:50.215Z,75.52
2018-06-27T07:24:50.201Z,76.00
2018-06-27T07:25:50.187Z,75.71
2018-06-27T07:26:50.184Z,75.23
2018-06-27T07:27:50.172Z,75.33
2018-06-27T07:28:50.201Z,75.71
2018-06-27T07:29:50.151Z,75.62
2018-06-27T07:30:50.142Z,76.81
2018-06-27T07:31:50.133Z,76.52
2018-06-27T07:32:50.131Z,76.04
2018-06-27T07:33:50.118Z,76.27
2018-06-27T07:34:50.103Z,74.73
2018-06-27T07:35:50.103Z,74.16
2018-06-27T07:36:50.085Z,74.35
2018-06-27T07:37:50.079Z,73.93
2018-06-27T07:38:50.074Z,74.22
2018-06-27T07:39:50.058Z,73.83
2018-06-27T07:40:50.050Z,74.41
2018-06-27T07:41:50.040Z,74.31
2018-06-27T07:42:50.031Z,74.22
2018-06-27T07:43:50.019Z,75.08
2018-06-27T07:44:50.013Z,75.27
2018-06-27T07:45:50.005Z,74.98
2018-06-27T07:46:49.997Z,74.51
2018-06-27T07:47:49.986Z,74.31
2018-06-27T07:48:49.979Z,73.93
2018-06-27T07:49:49.983Z,74.89
2018-06-27T07:50:49.959Z,73.45
2018-06-27T07:51:49.949Z,74.41
2018-06-27T07:52:49.947Z,74.02
2018-06-27T07:53:49.932Z,74.79
2018-06-27T07:54:49.920Z,73.83
2018-06-27T07:55:49.919Z,72.88
2018-06-27T07:56:49.902Z,73.07
2018-06-27T07:57:49.892Z,73.45
2018-06-27T07:58:49.882Z,73.26
2018-06-27T07:59:49.876Z,72.81
2018-06-27T08:00:49.867Z,73.20
2018-06-27T08:01:49.858Z,73.30
2018-06-27T08:02:49.843Z,72.81
2018-06-27T08:03:49.837Z,73.00
2018-06-27T08:04:49.833Z,73.00
2018-06-27T08:05:49.877Z,73.20
2018-06-27T08:06:49.811Z,73.30
2018-06-27T08:07:49.801Z,72.14
2018-06-27T08:08:49.788Z,72.39
2018-06-27T08:09:49.781Z,72.30
2018-06-27T08:10:49.778Z,73.35
2018-06-27T08:11:49.764Z,73.45
2018-06-27T08:12:49.754Z,73.07
2018-06-27T08:13:49.756Z,73.07
2018-06-27T08:14:49.738Z,73.83
2018-06-27T08:15:49.728Z,73.10
2018-06-27T08:16:49.724Z,73.16
2018-06-27T08:17:49.721Z,72.33
2018-06-27T08:18:49.701Z,73.30
2018-06-27T08:19:49.691Z,72.75
2018-06-27T08:20:49.683Z,72.75
2018-06-27T08:21:49.683Z,72.18
2018-06-27T08:22:49.664Z,71.41
2018-06-27T08:23:49.658Z,71.03
2018-06-27T08:24:49.643Z,71.31
2018-06-27T08:25:49.637Z,71.45
2018-06-27T08:26:49.630Z,70.49
2018-06-27T08:27:49.618Z,69.72
2018-06-27T08:28:49.613Z,69.91
2018-06-27T08:29:49.599Z,69.81
2018-06-27T08:30:49.593Z,70.39
2018-06-27T08:31:49.583Z,70.78
2018-06-27T08:32:49.577Z,70.36
2018-06-27T08:33:49.567Z,71.03
2018-06-27T08:34:49.564Z,70.74
2018-06-27T08:35:49.549Z,70.36
2018-06-27T08:37:27.192Z,69.91
2018-06-27T08:38:27.184Z,68.66
2018-06-27T08:40:22.121Z,67.13
2018-06-27T08:41:22.012Z,66.93
2018-06-27T08:43:16.894Z,67.45
2018-06-27T08:44:16.883Z,69.05
2018-06-27T08:46:11.745Z,67.70
2018-06-27T08:47:11.713Z,69.59
2018-06-27T08:49:06.699Z,68.66
2018-06-27T08:50:06.675Z,68.51
2018-06-27T08:52:01.554Z,68.51
2018-06-27T08:53:01.519Z,68.89
2018-06-27T08:54:56.398Z,69.08
2018-06-27T08:55:56.374Z,68.60
2018-06-27T08:57:51.044Z,68.60
2018-06-27T08:58:51.050Z,68.89
2018-06-27T09:00:45.978Z,70.14
2018-06-27T09:01:45.872Z,68.89
2018-06-27T09:03:40.759Z,68.70
2018-06-27T09:04:40.731Z,68.79
2018-06-27T09:06:36.598Z,68.21
2018-06-27T09:07:36.628Z,68.60
2018-06-27T09:09:50.579Z,68.51
2018-06-27T09:10:50.427Z,68.02
2018-06-27T09:12:45.301Z,68.21
2018-06-27T09:13:45.276Z,69.60
2018-06-27T09:15:40.030Z,67.96
2018-06-27T09:16:39.979Z,67.25
2018-06-27T09:18:34.861Z,68.21
2018-06-27T09:19:34.836Z,67.45
2018-06-27T09:21:30.226Z,66.00
2018-06-27T09:22:30.183Z,66.61
2018-06-27T09:24:25.626Z,67.19
2018-06-27T09:25:25.595Z,67.29
2018-06-27T09:27:20.481Z,68.92
2018-06-27T09:28:20.453Z,67.96
2018-06-27T09:30:15.332Z,69.12
2018-06-27T09:31:15.306Z,65.66
2018-06-27T09:33:10.182Z,64.79
2018-06-27T09:34:10.213Z,66.04
2018-06-27T09:36:05.112Z,65.84
2018-06-27T09:37:05.014Z,65.66
2018-06-27T09:38:59.771Z,65.08
2018-06-27T09:39:59.747Z,65.08
2018-06-27T09:41:54.826Z,64.50
2018-06-27T09:42:54.597Z,64.98
2018-06-27T09:44:49.469Z,64.31
2018-06-27T09:45:49.450Z,63.25
2018-06-27T09:47:44.344Z,63.64
2018-06-27T09:48:44.304Z,64.50
2018-06-27T09:50:39.172Z,64.09
2018-06-27T09:51:39.142Z,63.06
2018-06-27T09:53:34.044Z,62.87
2018-06-27T09:54:33.994Z,63.35
2018-06-27T09:56:29.376Z,62.13
2018-06-27T09:57:29.352Z,61.94
2018-06-27T09:59:24.941Z,59.44
2018-06-27T10:00:24.884Z,60.21
2018-06-27T10:02:19.081Z,59.24
2018-06-27T10:03:19.066Z,59.27
2018-06-27T10:05:13.948Z,59.75
2018-06-27T10:06:13.916Z,61.68
2018-06-27T10:08:08.792Z,59.75
2018-06-27T10:09:08.768Z,58.98
2018-06-27T10:11:03.659Z,57.37
2018-06-27T10:12:03.611Z,57.18
2018-06-27T10:13:58.573Z,56.60
2018-06-27T10:14:58.460Z,56.80
2018-06-27T10:16:53.350Z,56.12
2018-06-27T10:17:53.312Z,54.39
2018-06-27T10:19:48.759Z,55.83
2018-06-27T10:20:48.163Z,56.12
2018-06-27T10:22:43.076Z,55.23
2018-06-27T10:23:43.016Z,55.62
2018-06-27T10:25:37.983Z,55.65
2018-06-27T10:26:37.860Z,55.55
2018-06-27T10:28:32.883Z,52.95
2018-06-27T10:29:32.715Z,53.27
2018-06-27T10:31:27.671Z,54.13
2018-06-27T10:32:27.569Z,53.87
2018-06-27T10:34:22.702Z,54.16
2018-06-27T10:35:22.684Z,53.03
2018-06-27T10:37:17.766Z,52.06
2018-06-27T10:38:17.753Z,51.48
2018-06-27T10:40:12.673Z,50.90
2018-06-27T10:41:12.572Z,49.91
2018-06-27T10:43:08.474Z,48.86
2018-06-27T10:44:08.422Z,48.95
2018-06-27T10:46:04.380Z,50.59
2018-06-27T10:47:04.279Z,52.13
2018-06-27T10:48:59.159Z,54.09
2018-06-27T10:49:59.144Z,52.91
2018-06-27T10:51:55.008Z,52.35
2018-06-27T10:52:54.968Z,52.83
2018-06-27T10:54:50.821Z,52.23
2018-06-27T10:55:50.793Z,50.30
2018-06-27T10:57:46.660Z,49.73
2018-06-27T10:58:46.630Z,50.21
2018-06-27T11:00:41.606Z,51.10
2018-06-27T11:01:41.476Z,53.41
2018-06-27T11:03:36.850Z,48.49
2018-06-27T11:04:36.826Z,46.78
2018-06-27T11:06:31.845Z,46.01
2018-06-27T11:07:31.827Z,48.23
2018-06-27T11:09:27.679Z,45.84
2018-06-27T11:10:27.658Z,45.75
2018-06-27T11:15:17.876Z,44.76
2018-06-27T11:16:17.852Z,44.76
2018-06-27T11:18:13.734Z,44.08
2018-06-27T11:19:13.712Z,46.59
2018-06-27T11:21:08.591Z,46.97
2018-06-27T11:22:08.566Z,48.06
2018-06-27T11:24:03.448Z,46.33
2018-06-27T11:25:03.414Z,45.65
2018-06-27T11:26:58.421Z,44.46
2018-06-27T11:27:58.265Z,43.98
2018-06-27T11:29:52.719Z,45.79
2018-06-27T11:30:52.655Z,46.76
2018-06-27T11:32:47.576Z,45.99
2018-06-27T11:33:47.504Z,45.31
2018-06-27T11:35:42.378Z,45.53
2018-06-27T11:36:42.357Z,47.75
2018-06-27T11:38:36.609Z,45.62
2018-06-27T11:39:36.464Z,42.36
2018-06-27T11:41:32.289Z,39.06
2018-06-27T11:42:32.268Z,40.03
2018-06-27T11:44:27.216Z,38.02
2018-06-27T11:45:27.126Z,37.43
2018-06-27T11:47:23.008Z,38.95
2018-06-27T11:48:22.986Z,38.28
2018-06-27T11:50:17.908Z,39.70
2018-06-27T11:51:17.846Z,40.39
2018-06-27T11:53:13.299Z,41.65
2018-06-27T11:54:13.225Z,41.86
2018-06-27T11:56:08.180Z,36.46
2018-06-27T11:57:08.080Z,36.63
2018-06-27T11:59:02.968Z,36.93
2018-06-27T12:00:02.936Z,43.00
2018-06-27T12:01:57.828Z,45.03
2018-06-27T12:02:57.795Z,44.45
2018-06-27T12:04:52.691Z,45.03
2018-06-27T12:05:52.654Z,41.82
2018-06-27T12:07:47.522Z,38.33
2018-06-27T12:08:47.499Z,38.04
2018-06-27T12:10:42.380Z,39.59
2018-06-27T12:11:42.362Z,41.71
2018-06-27T12:13:37.097Z,43.05
2018-06-27T12:14:37.078Z,44.89
2018-06-27T12:16:32.579Z,43.54
2018-06-27T12:17:32.524Z,43.82
2018-06-27T12:19:27.396Z,44.90
2018-06-27T12:20:27.371Z,45.58
2018-06-27T12:22:22.687Z,45.51
2018-06-27T12:23:22.631Z,43.87
2018-06-27T12:25:18.089Z,43.75
2018-06-27T12:26:18.055Z,44.52
2018-06-27T12:28:13.875Z,44.98
2018-06-27T12:29:13.825Z,44.89
2018-06-27T12:31:10.201Z,46.04
2018-06-27T12:32:10.173Z,44.79
2018-06-27T12:34:05.052Z,45.73
2018-06-27T12:35:05.024Z,46.40
2018-06-27T12:37:00.898Z,43.90
2018-06-27T12:38:00.877Z,41.78
2018-06-27T12:39:57.252Z,40.24
2018-06-27T12:40:55.729Z,41.88
2018-06-27T12:42:50.614Z,43.13
2018-06-27T12:43:50.593Z,44.19
2018-06-27T12:45:45.548Z,44.02
2018-06-27T12:46:45.371Z,42.38
2018-06-27T12:48:41.281Z,42.86
2018-06-27T12:49:41.225Z,43.55
2018-06-27T12:51:36.183Z,46.04
2018-06-27T12:52:36.074Z,44.81
2018-06-27T12:54:30.970Z,45.00
2018-06-27T12:55:30.913Z,43.07
2018-06-27T12:57:27.836Z,43.65
2018-06-27T12:58:27.810Z,44.06
2018-06-27T13:00:22.717Z,45.92
2018-06-27T13:01:22.662Z,47.07
2018-06-27T13:03:17.594Z,45.72
2018-06-27T13:04:17.532Z,47.00
2018-06-27T13:06:12.493Z,45.09
2018-06-27T13:07:12.462Z,49.05
2018-06-27T13:09:07.665Z,45.96
2018-06-27T13:10:07.577Z,43.74
2018-06-27T13:12:02.450Z,42.75
2018-06-27T13:13:02.419Z,42.25
2018-06-27T13:14:57.306Z,44.49
2018-06-27T13:15:57.279Z,43.98
2018-06-27T13:17:52.738Z,40.59
2018-06-27T13:18:52.624Z,42.59
2018-06-27T13:20:48.052Z,42.13
2018-06-27T13:21:47.359Z,43.55
2018-06-27T13:23:42.428Z,42.79
2018-06-27T13:24:42.411Z,40.95
2018-06-27T13:26:37.305Z,41.34
2018-06-27T13:27:37.261Z,41.24
2018-06-27T13:29:32.132Z,44.81
2018-06-27T13:30:32.112Z,43.17
2018-06-27T13:32:27.010Z,44.15
2018-06-27T13:33:26.957Z,44.25
2018-06-27T13:35:21.831Z,46.37
2018-06-27T13:36:21.813Z,46.95
2018-06-27T13:38:16.688Z,47.89
2018-06-27T13:39:16.656Z,48.28
2018-06-27T13:41:11.612Z,46.66
2018-06-27T13:42:11.512Z,47.05
2018-06-27T13:44:07.131Z,45.51
2018-06-27T13:45:07.112Z,44.93
2018-06-27T13:47:02.080Z,46.66
2018-06-27T13:48:01.969Z,46.18
2018-06-27T13:49:56.908Z,47.72
2018-06-27T13:50:56.832Z,47.31
2018-06-27T13:52:51.491Z,48.21
2018-06-27T13:53:51.457Z,46.78
2018-06-27T13:55:47.360Z,48.61
2018-06-27T13:56:47.316Z,46.01
2018-06-27T13:58:42.192Z,44.83
2018-06-27T13:59:42.164Z,45.99
2018-06-27T14:01:37.135Z,46.66
2018-06-27T14:02:37.015Z,46.18
2018-06-27T14:04:31.886Z,46.20
2018-06-27T14:05:31.866Z,46.11
2018-06-27T14:07:27.267Z,43.89
2018-06-27T14:08:27.224Z,44.64
2018-06-27T14:10:22.100Z,42.21
2018-06-27T14:11:22.068Z,42.11
2018-06-27T14:13:16.954Z,44.42
2018-06-27T14:14:16.915Z,44.21
2018-06-27T14:16:11.806Z,44.04
2018-06-27T14:17:11.786Z,44.90
2018-06-27T14:19:07.653Z,44.32
2018-06-27T14:20:07.621Z,45.39
2018-06-27T14:22:02.496Z,43.34
2018-06-27T14:23:02.470Z,43.34
2018-06-27T14:24:57.351Z,42.19
2018-06-27T14:25:57.324Z,43.92
2018-06-27T14:27:52.194Z,42.47
2018-06-27T14:28:52.168Z,42.96
2018-06-27T14:30:47.127Z,42.57
2018-06-27T14:31:47.033Z,41.59
2018-06-27T14:33:41.918Z,42.93
2018-06-27T14:34:41.885Z,43.23
2018-06-27T14:36:36.768Z,44.19
2018-06-27T14:37:36.793Z,43.73
2018-06-27T14:39:31.700Z,47.19
2018-06-27T14:40:31.602Z,44.71
2018-06-27T14:42:26.998Z,43.82
2018-06-27T14:43:26.953Z,43.82
2018-06-27T14:45:21.828Z,41.89
2018-06-27T14:46:21.868Z,41.89
2018-06-27T14:48:16.707Z,42.09
2018-06-27T14:49:16.657Z,41.89
2018-06-27T14:51:12.140Z,40.76
2018-06-27T14:52:12.010Z,41.92
2018-06-27T14:54:06.878Z,42.52